CheckWX is a tool to help pilots better visualize weather data.  It is not intended as a substitute for an official pre-flight weather briefing.

08:12:47 UTC

KSJC METAR
Norman Y Mineta San Jose International Airport
San Jose, California, USA
Current

20 mins ago

KSJC 220753Z COR 34016KT 10SM CLR 08/M05 A2993 RMK AO2 SLP135 LAST T00831050 401330044
Observed
Feb-22 @ 07:53 UTC
Wind
  • 340° at 16 KTS
Visibility
10 SM
Flight Rules
VFR
Cloud Levels
  • Clear skies
Temperature
C / 46°F
Dewpoint
-5°C / 23°F
Humidity
40%
Altimeter
29.93" Hg
Pressure
1013.5 hPa
Previous

1 hour ago

KSJC 220653Z 33015KT 10SM CLR 08/M03 A2991 RMK AO2 SLP127 T00831033
Observed
Feb-22 @ 06:53 UTC
Wind
  • 330° at 15 KTS
Visibility
10 SM
Flight Rules
VFR
Cloud Levels
  • Clear skies
Temperature
C / 46°F
Dewpoint
-3°C / 27°F
Humidity
46%
Altimeter
29.91" Hg
Pressure
1012.7 hPa
Previous

2 hours ago

KSJC 220553Z 35012KT 10SM CLR 09/M05 A2988 RMK AO2 SLP119 T00941050 10128 20083 51023
Observed
Feb-22 @ 05:53 UTC
Wind
  • 350° at 12 KTS
Visibility
10 SM
Flight Rules
VFR
Cloud Levels
  • Clear skies
Temperature
C / 48°F
Dewpoint
-5°C / 23°F
Humidity
37%
Altimeter
29.88" Hg
Pressure
1011.9 hPa